Time;durP1;ratioP1;P1;durP2;ratioP2;P2;SDS_P1;SDS_P2;PMS_P1;PMS_P2;Temp;Humidity;BMP_temperature;BMP_pressure;BME280_temperature;BME280_humidity;BME280_pressure;Samples;Min_cycle;Max_cycle;Signal;HPM_P1;HPM_P2
2022/03/03 00:01:52;;;;;;;13.38;6.93;;;;;;;;;;5099224;28;20112;-70
2022/03/03 00:04:19;;;;;;;11.30;7.00;;;;;;;;;;5099070;28;20091;-70
2022/03/03 00:06:45;;;;;;;9.60;6.18;;;;;;;;;;5099057;28;20105;-70
2022/03/03 00:09:11;;;;;;;12.77;6.82;;;;;;;;;;5094065;28;20051;-70
2022/03/03 00:11:38;;;;;;;10.57;6.47;;;;;;;;;;5098636;28;20097;-68
2022/03/03 00:14:04;;;;;;;10.18;5.90;;;;;;;;;;5099446;28;20020;-68
2022/03/03 00:16:30;;;;;;;10.00;6.30;;;;;;;;;;5099140;28;20234;-69
2022/03/03 00:18:56;;;;;;;10.18;6.43;;;;;;;;;;5098597;28;20104;-69
2022/03/03 00:21:22;;;;;;;10.15;6.18;;;;;;;;;;5096073;28;20016;-69
2022/03/03 00:23:48;;;;;;;9.38;5.65;;;;;;;;;;5096862;28;20027;-70
2022/03/03 00:26:14;;;;;;;12.30;5.80;;;;;;;;;;5099118;28;20085;-69
2022/03/03 00:28:41;;;;;;;9.32;6.03;;;;;;;;;;5098845;28;20052;-69
2022/03/03 00:31:07;;;;;;;9.85;5.93;;;;;;;;;;5080879;28;20028;-69
2022/03/03 00:33:33;;;;;;;11.30;6.07;;;;;;;;;;5097150;28;20052;-69
2022/03/03 00:35:59;;;;;;;11.35;6.22;;;;;;;;;;5095757;28;20040;-69
2022/03/03 00:38:26;;;;;;;9.88;6.13;;;;;;;;;;5098301;28;20032;-69
2022/03/03 00:40:52;;;;;;;11.43;6.38;;;;;;;;;;5098938;28;20109;-70
2022/03/03 00:43:18;;;;;;;10.90;6.40;;;;;;;;;;5080791;28;20027;-69
2022/03/03 00:45:44;;;;;;;10.30;6.45;;;;;;;;;;5098755;28;20020;-69
2022/03/03 00:48:10;;;;;;;10.68;6.25;;;;;;;;;;5077320;28;20036;-69
2022/03/03 00:50:36;;;;;;;10.10;6.13;;;;;;;;;;5109188;28;20031;-69
2022/03/03 00:53:02;;;;;;;10.25;6.05;;;;;;;;;;5099047;28;20036;-69
2022/03/03 00:55:28;;;;;;;9.68;6.00;;;;;;;;;;5098475;28;20116;-69
2022/03/03 00:57:54;;;;;;;12.07;6.53;;;;;;;;;;5098398;28;20058;-69
2022/03/03 01:00:21;;;;;;;11.45;6.28;;;;;;;;;;5076606;28;20084;-69
2022/03/03 01:02:47;;;;;;;12.32;6.43;;;;;;;;;;5096141;28;20024;-70
2022/03/03 01:05:13;;;;;;;9.43;5.75;;;;;;;;;;5098769;28;20029;-70
2022/03/03 01:07:39;;;;;;;12.10;6.55;;;;;;;;;;5080627;28;20493;-68
2022/03/03 01:10:06;;;;;;;13.57;6.32;;;;;;;;;;5098037;28;20110;-68
2022/03/03 01:12:32;;;;;;;11.98;6.20;;;;;;;;;;5078455;28;20020;-69
2022/03/03 01:14:58;;;;;;;10.30;6.45;;;;;;;;;;5077011;28;20473;-69
2022/03/03 01:17:24;;;;;;;11.77;7.10;;;;;;;;;;5097331;28;20038;-69
2022/03/03 01:19:50;;;;;;;9.95;5.85;;;;;;;;;;5097485;28;20516;-69
2022/03/03 01:22:16;;;;;;;10.30;5.80;;;;;;;;;;5098072;28;20048;-68
2022/03/03 01:24:43;;;;;;;14.73;5.90;;;;;;;;;;5078948;28;20467;-68
2022/03/03 01:27:09;;;;;;;9.75;5.57;;;;;;;;;;5094737;28;20031;-68
2022/03/03 01:29:35;;;;;;;9.43;5.65;;;;;;;;;;5108471;28;20520;-68
2022/03/03 01:32:01;;;;;;;9.60;5.80;;;;;;;;;;5098696;28;20055;-68
2022/03/03 01:34:27;;;;;;;11.27;5.93;;;;;;;;;;5097330;28;20496;-69
2022/03/03 01:36:53;;;;;;;10.13;5.68;;;;;;;;;;5097437;28;20111;-68
2022/03/03 01:39:19;;;;;;;11.10;5.32;;;;;;;;;;5094011;28;20024;-70
2022/03/03 01:41:45;;;;;;;9.80;5.72;;;;;;;;;;5096089;28;20097;-70
2022/03/03 01:44:11;;;;;;;10.30;6.40;;;;;;;;;;5097388;28;20039;-70
2022/03/03 01:46:47;;;;;;;10.63;6.20;;;;;;;;;;5097354;28;20492;-70
2022/03/03 01:49:13;;;;;;;9.48;5.30;;;;;;;;;;5097073;28;20020;-71
2022/03/03 01:51:39;;;;;;;10.70;5.95;;;;;;;;;;5096623;28;20358;-70
2022/03/03 01:54:05;;;;;;;11.40;5.90;;;;;;;;;;5093703;28;20103;-69
2022/03/03 01:56:31;;;;;;;11.27;6.38;;;;;;;;;;5096372;28;20105;-69
2022/03/03 01:58:57;;;;;;;10.73;6.45;;;;;;;;;;5097228;28;20067;-69
2022/03/03 02:01:23;;;;;;;10.80;6.05;;;;;;;;;;5097087;28;20023;-69
2022/03/03 02:03:49;;;;;;;9.60;5.53;;;;;;;;;;5097059;28;20507;-69
2022/03/03 02:06:16;;;;;;;10.38;5.45;;;;;;;;;;5094371;28;20024;-69
2022/03/03 02:08:42;;;;;;;10.27;5.68;;;;;;;;;;5108490;28;20027;-69
2022/03/03 02:11:08;;;;;;;11.15;5.88;;;;;;;;;;5096725;28;20058;-69
2022/03/03 02:13:36;;;;;;;11.02;5.78;;;;;;;;;;5097115;28;20032;-68
2022/03/03 02:16:02;;;;;;;10.45;6.10;;;;;;;;;;5096386;28;20456;-69
2022/03/03 02:18:28;;;;;;;9.60;5.57;;;;;;;;;;5094538;28;20028;-70
2022/03/03 02:20:54;;;;;;;11.65;5.90;;;;;;;;;;5094791;28;20443;-69
2022/03/03 02:23:20;;;;;;;11.13;6.28;;;;;;;;;;5096504;28;20024;-69
2022/03/03 02:25:46;;;;;;;12.88;7.63;;;;;;;;;;5096793;28;20028;-69
2022/03/03 02:28:12;;;;;;;8.93;5.82;;;;;;;;;;5096174;28;20114;-69
2022/03/03 02:30:38;;;;;;;11.95;6.38;;;;;;;;;;5094988;28;20058;-70
2022/03/03 02:33:04;;;;;;;11.00;5.88;;;;;;;;;;5093323;28;20394;-69
2022/03/03 02:35:30;;;;;;;11.90;6.25;;;;;;;;;;5095802;28;20040;-69
2022/03/03 02:37:57;;;;;;;10.32;5.95;;;;;;;;;;5096544;28;20400;-69
2022/03/03 02:40:23;;;;;;;11.50;6.90;;;;;;;;;;5096169;28;20024;-69
2022/03/03 02:42:49;;;;;;;9.95;5.93;;;;;;;;;;5096945;28;20110;-70
2022/03/03 02:45:15;;;;;;;12.63;7.22;;;;;;;;;;5091913;28;20051;-69
2022/03/03 02:47:42;;;;;;;10.95;6.80;;;;;;;;;;5077844;28;20035;-69
2022/03/03 02:50:09;;;;;;;13.43;6.97;;;;;;;;;;5096255;28;20035;-69
2022/03/03 02:52:35;;;;;;;12.65;7.15;;;;;;;;;;5096692;28;20113;-69
2022/03/03 02:55:01;;;;;;;11.48;6.15;;;;;;;;;;5096670;28;20027;-69
2022/03/03 03:00:12;;;;;;;10.18;5.82;;;;;;;;;;5092117;28;20066;-69
2022/03/03 03:02:38;;;;;;;11.07;6.75;;;;;;;;;;5095853;28;20031;-69
2022/03/03 03:05:04;;;;;;;12.30;6.50;;;;;;;;;;5078436;28;20032;-69
2022/03/03 03:07:30;;;;;;;10.63;6.68;;;;;;;;;;5078484;28;20374;-69
2022/03/03 03:09:56;;;;;;;11.73;6.03;;;;;;;;;;5096299;28;20076;-70
2022/03/03 03:12:22;;;;;;;10.85;6.30;;;;;;;;;;5093215;28;20486;-69
2022/03/03 03:14:48;;;;;;;12.10;6.20;;;;;;;;;;5094017;28;20028;-69
2022/03/03 03:17:14;;;;;;;10.43;6.50;;;;;;;;;;5096663;28;20039;-69
2022/03/03 03:19:40;;;;;;;11.80;6.47;;;;;;;;;;5095686;28;20036;-69
2022/03/03 03:22:06;;;;;;;11.63;6.35;;;;;;;;;;5096146;28;20061;-69
2022/03/03 03:24:32;;;;;;;9.25;5.75;;;;;;;;;;5094385;28;20016;-70
2022/03/03 03:26:58;;;;;;;11.60;6.60;;;;;;;;;;5093620;28;20024;-70
2022/03/03 03:29:24;;;;;;;10.98;6.10;;;;;;;;;;5094929;28;20505;-69
2022/03/03 03:31:50;;;;;;;12.00;6.82;;;;;;;;;;5095840;28;20053;-70
2022/03/03 03:34:16;;;;;;;11.40;6.07;;;;;;;;;;5096210;28;20157;-69
2022/03/03 03:36:42;;;;;;;10.32;5.93;;;;;;;;;;5077793;28;20028;-69
2022/03/03 03:39:08;;;;;;;10.95;6.07;;;;;;;;;;5073898;28;20028;-69
2022/03/03 03:41:34;;;;;;;10.98;5.63;;;;;;;;;;5095794;28;20032;-69
2022/03/03 03:44:00;;;;;;;13.48;6.32;;;;;;;;;;5099776;28;20027;-69
2022/03/03 03:46:26;;;;;;;12.75;6.80;;;;;;;;;;5099505;28;20031;-69
2022/03/03 03:48:52;;;;;;;13.90;6.70;;;;;;;;;;5082034;28;20028;-70
2022/03/03 03:51:18;;;;;;;10.80;6.07;;;;;;;;;;5095857;28;20069;-69
2022/03/03 03:53:44;;;;;;;13.82;6.82;;;;;;;;;;5098360;28;20025;-69
2022/03/03 03:56:10;;;;;;;12.85;6.43;;;;;;;;;;5099273;28;20107;-69
2022/03/03 03:58:36;;;;;;;9.55;5.57;;;;;;;;;;5099639;28;20489;-69
2022/03/03 04:01:02;;;;;;;10.43;6.00;;;;;;;;;;5099165;28;20031;-69
2022/03/03 04:03:28;;;;;;;11.00;6.25;;;;;;;;;;5097253;28;20043;-69
2022/03/03 04:05:54;;;;;;;11.98;6.30;;;;;;;;;;5096703;28;20473;-69
2022/03/03 04:08:20;;;;;;;11.82;6.40;;;;;;;;;;5099282;28;20085;-69
2022/03/03 04:10:47;;;;;;;12.55;6.18;;;;;;;;;;5098942;28;20457;-69
2022/03/03 04:13:15;;;;;;;10.02;6.25;;;;;;;;;;5098571;28;20119;-69
2022/03/03 04:15:41;;;;;;;11.43;6.28;;;;;;;;;;5098654;28;20511;-70
2022/03/03 04:18:07;;;;;;;11.18;5.88;;;;;;;;;;5095458;28;20573;-69
2022/03/03 04:20:33;;;;;;;11.27;5.78;;;;;;;;;;5098810;28;20035;-69
2022/03/03 04:22:59;;;;;;;11.60;6.47;;;;;;;;;;5098387;28;20036;-69
2022/03/03 04:25:25;;;;;;;12.02;6.43;;;;;;;;;;5098806;28;20020;-69
2022/03/03 04:27:51;;;;;;;12.25;7.00;;;;;;;;;;5081144;28;20552;-68
2022/03/03 04:30:17;;;;;;;11.90;6.65;;;;;;;;;;5077555;28;20073;-69
2022/03/03 04:32:43;;;;;;;10.95;6.28;;;;;;;;;;5097754;28;20052;-69
2022/03/03 04:35:10;;;;;;;11.20;6.32;;;;;;;;;;5107648;28;20023;-69
2022/03/03 04:37:37;;;;;;;10.80;5.97;;;;;;;;;;5103194;28;20055;-69
2022/03/03 04:40:03;;;;;;;11.30;6.38;;;;;;;;;;5080692;28;20019;-69
2022/03/03 04:42:29;;;;;;;10.27;5.82;;;;;;;;;;5095957;28;20022;-69
2022/03/03 04:44:55;;;;;;;11.50;6.05;;;;;;;;;;5109993;28;20099;-69
2022/03/03 04:47:22;;;;;;;12.18;5.88;;;;;;;;;;5098257;28;20028;-69
2022/03/03 04:49:48;;;;;;;12.15;5.65;;;;;;;;;;5098699;28;20026;-69
2022/03/03 04:52:14;;;;;;;11.43;6.05;;;;;;;;;;5098664;28;20103;-70
2022/03/03 04:54:40;;;;;;;11.25;5.95;;;;;;;;;;5096660;28;20098;-69
2022/03/03 04:57:06;;;;;;;11.73;6.15;;;;;;;;;;5094408;28;20373;-69
2022/03/03 04:59:32;;;;;;;11.60;6.10;;;;;;;;;;5097705;28;20027;-70
2022/03/03 05:01:58;;;;;;;11.48;6.03;;;;;;;;;;5098450;28;20477;-70
2022/03/03 05:04:24;;;;;;;11.10;6.90;;;;;;;;;;5098131;28;20028;-70
2022/03/03 05:06:50;;;;;;;11.10;5.88;;;;;;;;;;5098181;28;20030;-69
2022/03/03 05:09:16;;;;;;;10.00;5.97;;;;;;;;;;5093830;28;20027;-68
2022/03/03 05:11:43;;;;;;;9.90;5.70;;;;;;;;;;5097368;28;20069;-69
2022/03/03 05:14:08;;;;;;;12.93;6.65;;;;;;;;;;5098160;28;20056;-68
2022/03/03 05:16:34;;;;;;;13.52;5.63;;;;;;;;;;5097814;28;20068;-69
2022/03/03 05:19:00;;;;;;;11.10;6.10;;;;;;;;;;5079941;28;20119;-69
2022/03/03 05:21:26;;;;;;;12.82;6.00;;;;;;;;;;5094865;28;20015;-68
2022/03/03 05:23:53;;;;;;;10.93;6.35;;;;;;;;;;5109174;28;20039;-71
2022/03/03 05:26:19;;;;;;;12.13;6.03;;;;;;;;;;5097642;28;20111;-69
2022/03/03 05:28:45;;;;;;;12.38;7.07;;;;;;;;;;5077204;28;20047;-68
2022/03/03 05:31:11;;;;;;;11.35;5.90;;;;;;;;;;5097743;28;20035;-69
2022/03/03 05:33:37;;;;;;;10.57;5.22;;;;;;;;;;5096283;28;20027;-69
2022/03/03 05:36:07;;;;;;;9.55;5.55;;;;;;;;;;5094026;28;20039;-69
2022/03/03 05:38:34;;;;;;;10.02;6.05;;;;;;;;;;5097070;28;20031;-69
2022/03/03 05:41:00;;;;;;;14.30;6.05;;;;;;;;;;5097562;28;20024;-69
2022/03/03 05:43:27;;;;;;;10.93;6.47;;;;;;;;;;5097435;28;20024;-70
2022/03/03 05:45:54;;;;;;;11.85;6.47;;;;;;;;;;5105995;28;20030;-69
2022/03/03 05:48:20;;;;;;;10.20;5.65;;;;;;;;;;5093554;28;20024;-70
2022/03/03 05:50:47;;;;;;;13.32;6.43;;;;;;;;;;5095590;28;20452;-69
2022/03/03 05:53:13;;;;;;;10.20;6.38;;;;;;;;;;5079474;28;20024;-69
2022/03/03 05:55:43;;;;;;;11.10;6.50;;;;;;;;;;5079223;28;20164;-69
2022/03/03 05:58:11;;;;;;;9.60;5.53;;;;;;;;;;5097476;28;20016;-69
2022/03/03 06:00:38;;;;;;;11.82;5.80;;;;;;;;;;5076653;28;20115;-69
2022/03/03 06:03:04;;;;;;;10.70;6.10;;;;;;;;;;5108993;28;20055;-69
2022/03/03 06:05:31;;;;;;;11.75;6.68;;;;;;;;;;5104532;28;20027;-69
2022/03/03 06:08:02;;;;;;;11.95;6.40;;;;;;;;;;5092652;28;20051;-69
2022/03/03 06:10:31;;;;;;;11.77;6.63;;;;;;;;;;5102799;28;20028;-70
2022/03/03 06:13:20;;;;;;;13.18;6.40;;;;;;;;;;5096540;28;20023;-69
2022/03/03 06:15:47;;;;;;;11.40;5.97;;;;;;;;;;5097926;28;20119;-69
2022/03/03 06:18:13;;;;;;;9.82;5.70;;;;;;;;;;5108804;28;20361;-69
2022/03/03 06:20:40;;;;;;;10.30;5.35;;;;;;;;;;5096177;28;20381;-66
2022/03/03 06:23:07;;;;;;;11.33;6.47;;;;;;;;;;5096108;28;20028;-68
2022/03/03 06:25:33;;;;;;;9.57;6.13;;;;;;;;;;5096824;28;20265;-68
2022/03/03 06:27:59;;;;;;;10.00;5.82;;;;;;;;;;5096318;28;20031;-69
2022/03/03 06:30:25;;;;;;;13.13;6.43;;;;;;;;;;5093839;28;20032;-68
2022/03/03 06:32:51;;;;;;;12.52;6.75;;;;;;;;;;5094169;28;20042;-68
2022/03/03 06:35:17;;;;;;;11.90;5.93;;;;;;;;;;5096100;28;20032;-67
2022/03/03 06:37:43;;;;;;;11.35;6.22;;;;;;;;;;5078428;28;20072;-70
2022/03/03 06:40:09;;;;;;;13.35;6.22;;;;;;;;;;5096583;28;20020;-68
2022/03/03 06:42:35;;;;;;;11.00;5.95;;;;;;;;;;5108276;28;20043;-68
2022/03/03 06:45:01;;;;;;;12.70;6.95;;;;;;;;;;5075310;28;20024;-68
2022/03/03 06:47:27;;;;;;;11.02;6.22;;;;;;;;;;5095544;28;20028;-64
2022/03/03 06:49:53;;;;;;;12.88;7.78;;;;;;;;;;5078809;28;20051;-65
2022/03/03 06:52:23;;;;;;;10.77;6.70;;;;;;;;;;5096445;28;20059;-65
2022/03/03 06:54:53;;;;;;;11.40;6.15;;;;;;;;;;5096540;28;20019;-64
2022/03/03 06:57:20;;;;;;;11.18;6.45;;;;;;;;;;5092618;28;20089;-64
2022/03/03 06:59:46;;;;;;;13.25;6.70;;;;;;;;;;5094687;28;20492;-64
2022/03/03 07:02:13;;;;;;;11.75;6.57;;;;;;;;;;5096530;28;20020;-66
2022/03/03 07:04:40;;;;;;;12.75;7.13;;;;;;;;;;5103649;28;20043;-66
2022/03/03 07:07:06;;;;;;;10.27;6.07;;;;;;;;;;5107671;28;20027;-65
2022/03/03 07:09:32;;;;;;;12.32;6.75;;;;;;;;;;5106429;28;20036;-65
2022/03/03 07:12:00;;;;;;;12.23;7.10;;;;;;;;;;5093736;28;20020;-65
2022/03/03 07:14:26;;;;;;;12.80;7.60;;;;;;;;;;5095508;28;20065;-64
2022/03/03 07:16:55;;;;;;;11.75;6.50;;;;;;;;;;5097254;28;20040;-65
2022/03/03 07:19:27;;;;;;;11.75;6.93;;;;;;;;;;5078869;28;20028;-65
2022/03/03 07:22:12;;;;;;;11.52;6.13;;;;;;;;;;5100255;28;20085;-66
2022/03/03 07:24:44;;;;;;;11.63;6.82;;;;;;;;;;5093410;28;20110;-67
2022/03/03 07:27:15;;;;;;;10.00;5.82;;;;;;;;;;5093813;28;20038;-68
2022/03/03 07:29:42;;;;;;;9.52;5.47;;;;;;;;;;5110595;28;20412;-67
2022/03/03 07:32:08;;;;;;;9.63;5.85;;;;;;;;;;5100291;28;20028;-67
2022/03/03 07:34:38;;;;;;;11.13;6.82;;;;;;;;;;5099769;28;20028;-70
2022/03/03 07:37:10;;;;;;;10.13;6.10;;;;;;;;;;5099148;28;20035;-67
2022/03/03 07:39:41;;;;;;;11.48;5.90;;;;;;;;;;5080988;28;20495;-67
2022/03/03 07:42:15;;;;;;;9.57;6.53;;;;;;;;;;5077852;28;20028;-67
2022/03/03 07:44:41;;;;;;;11.25;6.82;;;;;;;;;;5111192;28;20434;-67
2022/03/03 07:47:08;;;;;;;9.88;6.63;;;;;;;;;;5099840;28;20032;-68
2022/03/03 07:49:34;;;;;;;11.13;6.40;;;;;;;;;;5081441;28;20038;-68
2022/03/03 07:52:04;;;;;;;9.50;6.47;;;;;;;;;;5099875;28;20031;-68
2022/03/03 07:54:30;;;;;;;10.65;6.38;;;;;;;;;;5079725;28;20028;-73
2022/03/03 07:56:57;;;;;;;9.27;6.20;;;;;;;;;;5078278;28;20401;-68
2022/03/03 07:59:26;;;;;;;10.10;6.30;;;;;;;;;;5109861;28;20031;-68
2022/03/03 08:01:54;;;;;;;11.15;6.88;;;;;;;;;;5101925;28;20059;-68
2022/03/03 08:04:24;;;;;;;10.77;6.70;;;;;;;;;;5099521;28;20421;-67
2022/03/03 08:06:55;;;;;;;11.05;7.05;;;;;;;;;;5099478;28;20471;-67
2022/03/03 08:09:23;;;;;;;11.15;6.70;;;;;;;;;;5077543;28;20032;-69
2022/03/03 08:11:51;;;;;;;;;;;;;;;;;;5101317;27;20030;-70
2022/03/03 08:14:17;;;;;;;9.70;5.65;;;;;;;;;;5108768;28;19960;-69
2022/03/03 08:16:45;;;;;;;9.15;5.57;;;;;;;;;;5101050;28;20059;-67
2022/03/03 08:19:11;;;;;;;9.05;6.00;;;;;;;;;;5097904;28;20062;-67
2022/03/03 08:21:37;;;;;;;9.43;6.43;;;;;;;;;;5097102;28;20030;-67
2022/03/03 08:24:04;;;;;;;12.25;6.82;;;;;;;;;;5095045;28;20024;-66
2022/03/03 08:26:30;;;;;;;11.02;6.30;;;;;;;;;;5098534;28;20035;-66
2022/03/03 08:28:56;;;;;;;9.27;6.53;;;;;;;;;;5097211;28;20062;-67
2022/03/03 08:31:35;;;;;;;12.38;6.53;;;;;;;;;;5098059;28;20024;-66
2022/03/03 08:34:03;;;;;;;8.55;5.93;;;;;;;;;;5098104;28;20103;-66
2022/03/03 08:36:44;;;;;;;8.95;5.72;;;;;;;;;;5078394;28;20518;-67
2022/03/03 08:39:10;;;;;;;10.48;6.35;;;;;;;;;;5094683;28;20016;-66
2022/03/03 08:41:38;;;;;;;10.27;6.70;;;;;;;;;;5098544;28;20540;-67
2022/03/03 08:44:04;;;;;;;10.10;6.97;;;;;;;;;;5098851;28;20024;-66
2022/03/03 08:46:32;;;;;;;8.93;6.28;;;;;;;;;;5097984;28;20448;-66
2022/03/03 08:49:00;;;;;;;9.15;6.57;;;;;;;;;;5098328;28;20377;-66
2022/03/03 08:51:26;;;;;;;9.57;6.00;;;;;;;;;;5095646;28;20024;-66
2022/03/03 08:53:52;;;;;;;8.80;5.70;;;;;;;;;;5096016;28;20285;-66
2022/03/03 08:56:18;;;;;;;9.50;5.63;;;;;;;;;;5098196;28;20082;-66
2022/03/03 08:58:44;;;;;;;10.98;6.13;;;;;;;;;;5080734;28;20036;-66
2022/03/03 09:01:10;;;;;;;8.90;5.40;;;;;;;;;;5098062;28;20380;-67
2022/03/03 09:03:38;;;;;;;9.45;5.35;;;;;;;;;;5096528;28;20022;-66
2022/03/03 09:06:04;;;;;;;9.87;5.97;;;;;;;;;;5094972;28;20028;-67
2022/03/03 09:08:30;;;;;;;11.23;5.68;;;;;;;;;;5097521;28;20092;-67
2022/03/03 09:10:56;;;;;;;8.95;5.47;;;;;;;;;;5097945;28;20020;-67
2022/03/03 09:13:22;;;;;;;10.70;6.00;;;;;;;;;;5098619;28;20031;-67
2022/03/03 09:15:48;;;;;;;11.50;5.32;;;;;;;;;;5095044;28;20492;-67
2022/03/03 09:18:14;;;;;;;9.68;5.80;;;;;;;;;;5091690;28;20035;-67
2022/03/03 09:20:40;;;;;;;10.15;5.32;;;;;;;;;;5108689;28;20035;-67
2022/03/03 09:23:06;;;;;;;8.20;4.95;;;;;;;;;;5098242;28;20480;-67
2022/03/03 09:25:36;;;;;;;10.18;5.35;;;;;;;;;;5098157;28;20065;-67
2022/03/03 09:28:02;;;;;;;11.52;5.88;;;;;;;;;;5097766;28;20077;-67
2022/03/03 09:30:28;;;;;;;9.50;5.35;;;;;;;;;;5094639;28;20031;-66
2022/03/03 09:32:54;;;;;;;9.60;5.85;;;;;;;;;;5095351;28;20022;-67
2022/03/03 09:35:20;;;;;;;10.07;5.55;;;;;;;;;;5097390;28;20059;-67
2022/03/03 09:37:46;;;;;;;9.88;5.85;;;;;;;;;;5097668;28;20409;-67
2022/03/03 09:40:12;;;;;;;8.90;5.20;;;;;;;;;;5079849;28;20023;-66
2022/03/03 09:42:38;;;;;;;10.32;5.65;;;;;;;;;;5096141;28;20022;-67
2022/03/03 09:45:06;;;;;;;11.02;6.10;;;;;;;;;;5094015;28;20079;-67
2022/03/03 09:47:34;;;;;;;10.88;5.28;;;;;;;;;;5096733;28;20040;-67
2022/03/03 09:50:00;;;;;;;9.52;5.60;;;;;;;;;;5097453;28;20463;-67
2022/03/03 09:52:26;;;;;;;8.95;4.72;;;;;;;;;;5097693;28;20107;-66
2022/03/03 09:54:55;;;;;;;10.23;6.00;;;;;;;;;;5079623;28;20026;-66
2022/03/03 09:57:21;;;;;;;10.38;6.55;;;;;;;;;;5093372;28;20500;-67
2022/03/03 09:59:48;;;;;;;11.75;6.82;;;;;;;;;;5094778;28;20020;-67
2022/03/03 10:02:14;;;;;;;12.18;7.13;;;;;;;;;;5097377;28;20024;-67
2022/03/03 10:04:40;;;;;;;11.95;5.88;;;;;;;;;;5096763;28;20060;-67
2022/03/03 10:07:07;;;;;;;11.38;6.80;;;;;;;;;;5097154;28;20027;-66
2022/03/03 10:09:59;;;;;;;10.77;5.80;;;;;;;;;;5095337;28;20365;-66
2022/03/03 10:12:24;;;;;;;9.57;5.85;;;;;;;;;;5093067;28;20115;-66
2022/03/03 10:14:51;;;;;;;10.23;6.07;;;;;;;;;;5094482;28;20425;-66
2022/03/03 10:17:18;;;;;;;14.13;6.97;;;;;;;;;;5092670;28;20086;-66
2022/03/03 10:19:54;;;;;;;11.80;6.70;;;;;;;;;;5100747;28;20027;-66
2022/03/03 10:22:24;;;;;;;14.50;6.82;;;;;;;;;;5096691;28;20031;-67
2022/03/03 10:24:51;;;;;;;13.63;7.75;;;;;;;;;;5097067;28;20020;-66
2022/03/03 10:27:19;;;;;;;14.02;8.13;;;;;;;;;;5092674;28;20022;-66
2022/03/03 10:29:49;;;;;;;17.20;8.90;;;;;;;;;;5094834;28;20036;-67
2022/03/03 10:32:25;;;;;;;12.88;8.38;;;;;;;;;;5097192;28;20070;-67
2022/03/03 10:34:53;;;;;;;14.07;8.80;;;;;;;;;;5079294;28;20174;-67
2022/03/03 10:37:23;;;;;;;13.73;8.35;;;;;;;;;;5079052;28;20502;-67
2022/03/03 10:39:56;;;;;;;15.55;9.15;;;;;;;;;;5097008;28;20024;-67
2022/03/03 10:42:25;;;;;;;16.90;9.45;;;;;;;;;;5092424;28;20038;-67
2022/03/03 10:44:52;;;;;;;15.45;9.88;;;;;;;;;;5094374;28;20258;-67
2022/03/03 10:47:24;;;;;;;14.75;9.48;;;;;;;;;;5106537;28;20019;-66
2022/03/03 10:49:54;;;;;;;16.30;10.50;;;;;;;;;;5099544;28;20020;-67
2022/03/03 10:52:27;;;;;;;16.90;10.52;;;;;;;;;;5095887;28;20024;-67
2022/03/03 10:54:53;;;;;;;17.08;9.85;;;;;;;;;;5096569;28;20562;-67
2022/03/03 10:57:31;;;;;;;18.08;11.20;;;;;;;;;;5091601;28;20107;-67
2022/03/03 11:00:01;;;;;;;18.05;10.27;;;;;;;;;;5094153;28;20024;-66
2022/03/03 11:02:28;;;;;;;19.38;11.20;;;;;;;;;;5095837;28;20028;-67
2022/03/03 11:04:55;;;;;;;15.10;10.70;;;;;;;;;;5096567;28;20023;-68
2022/03/03 11:07:22;;;;;;;16.38;10.90;;;;;;;;;;5078381;28;20031;-67
2022/03/03 11:09:48;;;;;;;15.75;9.63;;;;;;;;;;5096373;28;20026;-67
2022/03/03 11:12:14;;;;;;;17.45;11.23;;;;;;;;;;5093003;28;20024;-68
2022/03/03 11:14:40;;;;;;;21.48;11.52;;;;;;;;;;5106988;28;20030;-68
2022/03/03 11:17:07;;;;;;;20.70;13.55;;;;;;;;;;5078705;28;20384;-67
2022/03/03 11:19:33;;;;;;;18.08;9.75;;;;;;;;;;5096526;28;20466;-68
2022/03/03 11:21:59;;;;;;;22.55;13.82;;;;;;;;;;5096259;28;20028;-67
2022/03/03 11:24:26;;;;;;;19.65;12.68;;;;;;;;;;5092837;28;20399;-68
2022/03/03 11:26:52;;;;;;;21.80;13.50;;;;;;;;;;5093206;28;20507;-68
2022/03/03 11:29:20;;;;;;;20.98;13.10;;;;;;;;;;5096360;28;20553;-68
2022/03/03 11:32:07;;;;;;;24.00;14.77;;;;;;;;;;5096192;28;20106;-68
2022/03/03 11:34:33;;;;;;;20.95;12.50;;;;;;;;;;5085663;28;20119;-68
2022/03/03 11:37:02;;;;;;;24.13;14.65;;;;;;;;;;5095237;28;20102;-68
2022/03/03 11:39:38;;;;;;;25.13;14.65;;;;;;;;;;5093387;28;20111;-67
2022/03/03 11:42:16;;;;;;;22.98;14.32;;;;;;;;;;5092662;28;20062;-68
2022/03/03 11:44:42;;;;;;;20.80;13.75;;;;;;;;;;5107298;28;20024;-68
2022/03/03 11:47:21;;;;;;;21.95;13.40;;;;;;;;;;5095972;28;20488;-68
2022/03/03 11:50:00;;;;;;;22.63;12.63;;;;;;;;;;5095720;28;20032;-68
2022/03/03 11:52:27;;;;;;;22.67;12.93;;;;;;;;;;5098412;28;20108;-68
2022/03/03 11:54:54;;;;;;;21.85;14.10;;;;;;;;;;5106562;28;20028;-68
2022/03/03 11:57:24;;;;;;;22.58;14.18;;;;;;;;;;5091818;28;20400;-68
2022/03/03 11:59:50;;;;;;;24.73;15.40;;;;;;;;;;5093827;28;20069;-68
2022/03/03 12:02:27;;;;;;;22.70;14.90;;;;;;;;;;5105277;28;20027;-68
2022/03/03 12:05:31;;;;;;;21.52;14.25;;;;;;;;;;5102013;28;20032;-69
2022/03/03 12:07:58;;;;;;;25.25;16.05;;;;;;;;;;5037049;28;20160;-69
2022/03/03 12:10:24;;;;;;;23.83;14.57;;;;;;;;;;5036442;28;20033;-68
2022/03/03 12:12:50;;;;;;;21.02;14.15;;;;;;;;;;5066571;28;20294;-68
2022/03/03 12:15:16;;;;;;;25.35;14.43;;;;;;;;;;5094770;28;20104;-68
2022/03/03 12:17:45;;;;;;;23.70;15.10;;;;;;;;;;5098466;28;20068;-69
2022/03/03 12:20:27;;;;;;;25.13;15.18;;;;;;;;;;5108213;28;20032;-67
2022/03/03 12:23:05;;;;;;;24.42;16.75;;;;;;;;;;5101612;28;20118;-67
2022/03/03 12:25:58;;;;;;;23.77;15.27;;;;;;;;;;5099001;28;20094;-67
2022/03/03 12:28:26;;;;;;;21.75;13.63;;;;;;;;;;5098723;28;20111;-66
2022/03/03 12:30:53;;;;;;;22.13;15.30;;;;;;;;;;5098638;28;20031;-67
2022/03/03 12:33:22;;;;;;;21.08;12.63;;;;;;;;;;5094899;28;20364;-67
2022/03/03 12:35:48;;;;;;;22.60;14.15;;;;;;;;;;5097029;28;20068;-67
2022/03/03 12:38:14;;;;;;;27.40;15.20;;;;;;;;;;5098937;28;20059;-68
2022/03/03 12:40:40;;;;;;;21.55;12.82;;;;;;;;;;5098882;28;20392;-67
2022/03/03 12:43:18;;;;;;;24.23;15.65;;;;;;;;;;5098030;28;20031;-67
2022/03/03 12:45:44;;;;;;;21.27;13.77;;;;;;;;;;5098453;28;20016;-67
2022/03/03 12:48:10;;;;;;;20.73;13.43;;;;;;;;;;5094405;28;20031;-67
2022/03/03 12:50:37;;;;;;;23.65;15.35;;;;;;;;;;5098313;28;20027;-67
2022/03/03 12:53:05;;;;;;;23.08;14.65;;;;;;;;;;5097613;28;20472;-67
2022/03/03 12:55:43;;;;;;;25.65;15.02;;;;;;;;;;5098689;28;20166;-68
2022/03/03 12:58:10;;;;;;;22.98;13.40;;;;;;;;;;5098371;28;20024;-67
2022/03/03 13:00:37;;;;;;;21.65;13.75;;;;;;;;;;5096548;28;20027;-67
2022/03/03 13:03:04;;;;;;;21.60;13.87;;;;;;;;;;5094997;28;20499;-67
2022/03/03 13:05:31;;;;;;;24.83;15.75;;;;;;;;;;5097521;28;20488;-67
2022/03/03 13:07:57;;;;;;;25.90;16.70;;;;;;;;;;5098076;28;20024;-67
2022/03/03 13:10:23;;;;;;;26.83;16.92;;;;;;;;;;5098316;28;20103;-67
2022/03/03 13:12:52;;;;;;;25.88;15.70;;;;;;;;;;5098305;28;20047;-67
2022/03/03 13:15:26;;;;;;;25.92;16.63;;;;;;;;;;5093229;28;20054;-67
2022/03/03 13:17:57;;;;;;;27.35;16.27;;;;;;;;;;5095082;28;20044;-67
2022/03/03 13:20:23;;;;;;;24.98;14.93;;;;;;;;;;5097609;28;20047;-67
2022/03/03 13:22:49;;;;;;;24.48;15.98;;;;;;;;;;5104834;28;20020;-67
2022/03/03 13:25:19;;;;;;;21.35;13.60;;;;;;;;;;5107541;28;20496;-68
2022/03/03 13:27:45;;;;;;;25.05;15.23;;;;;;;;;;5097059;28;20499;-67
2022/03/03 13:30:12;;;;;;;22.58;14.55;;;;;;;;;;5092921;28;20512;-67
2022/03/03 13:32:45;;;;;;;25.50;15.93;;;;;;;;;;5097238;28;20031;-67
2022/03/03 13:35:11;;;;;;;19.70;12.15;;;;;;;;;;5107174;28;20520;-68
2022/03/03 13:37:38;;;;;;;25.45;15.40;;;;;;;;;;5101482;28;20097;-68
2022/03/03 13:40:15;;;;;;;24.45;15.13;;;;;;;;;;5079887;28;20050;-67
2022/03/03 13:42:41;;;;;;;25.42;15.52;;;;;;;;;;5096752;28;20032;-67
2022/03/03 13:45:07;;;;;;;21.48;12.52;;;;;;;;;;5075576;28;20578;-68
2022/03/03 13:47:38;;;;;;;22.73;12.93;;;;;;;;;;5096698;28;20036;-67
2022/03/03 13:50:06;;;;;;;23.58;15.40;;;;;;;;;;5079903;28;20449;-67
2022/03/03 13:52:33;;;;;;;23.05;14.48;;;;;;;;;;5097167;28;20052;-67
2022/03/03 13:55:02;;;;;;;25.17;13.45;;;;;;;;;;5097439;28;20034;-67
2022/03/03 13:57:46;;;;;;;24.58;15.45;;;;;;;;;;5094395;28;20028;-67
2022/03/03 14:00:27;;;;;;;21.25;13.93;;;;;;;;;;5092692;28;20463;-67
2022/03/03 14:02:55;;;;;;;23.67;14.98;;;;;;;;;;5108557;28;20020;-66
2022/03/03 14:05:35;;;;;;;25.23;15.95;;;;;;;;;;5096502;28;20016;-67
2022/03/03 14:08:01;;;;;;;19.90;12.95;;;;;;;;;;5096865;28;20023;-67
2022/03/03 14:10:44;;;;;;;22.05;13.13;;;;;;;;;;5097020;28;20394;-67
2022/03/03 14:13:10;;;;;;;21.95;13.10;;;;;;;;;;5096880;28;20354;-67
2022/03/03 14:15:36;;;;;;;19.45;12.75;;;;;;;;;;5105104;28;20111;-66
2022/03/03 14:18:02;;;;;;;22.95;13.82;;;;;;;;;;5110371;28;20039;-67
2022/03/03 14:20:28;;;;;;;22.25;14.13;;;;;;;;;;5096252;28;20380;-66
2022/03/03 14:22:55;;;;;;;24.58;15.55;;;;;;;;;;5096383;28;20031;-68
2022/03/03 14:25:22;;;;;;;24.00;14.85;;;;;;;;;;5097197;28;20020;-67
2022/03/03 14:27:47;;;;;;;24.27;14.75;;;;;;;;;;5092628;28;20035;-67
2022/03/03 14:30:13;;;;;;;21.40;13.05;;;;;;;;;;5092244;28;20138;-66
2022/03/03 14:32:39;;;;;;;24.15;14.45;;;;;;;;;;5095893;28;20038;-67
2022/03/03 14:35:08;;;;;;;21.67;12.75;;;;;;;;;;5096256;28;20016;-67